createdAt,value
2019-04-03T00:00:45.070Z,60.56
2019-04-03T00:01:45.067Z,60.05
2019-04-03T00:02:45.058Z,60.15
2019-04-03T00:03:45.055Z,60.25
2019-04-03T00:04:45.028Z,60.56
2019-04-03T00:05:45.009Z,60.56
2019-04-03T00:06:45.002Z,60.56
2019-04-03T00:07:45.004Z,60.35
2019-04-03T00:08:44.995Z,60.66
2019-04-03T00:09:44.969Z,60.25
2019-04-03T00:10:44.953Z,60.76
2019-04-03T00:11:44.944Z,61.18
2019-04-03T00:12:44.977Z,61.27
2019-04-03T00:13:44.935Z,61.38
2019-04-03T00:14:44.933Z,60.46
2019-04-03T00:15:45.270Z,60.66
2019-04-03T00:16:45.522Z,60.56
2019-04-03T00:17:45.955Z,60.63
2019-04-03T00:18:46.872Z,60.63
2019-04-03T00:19:45.770Z,60.63
2019-04-03T00:20:44.850Z,60.66
2019-04-03T00:21:44.836Z,60.86
2019-04-03T00:22:46.465Z,60.63
2019-04-03T00:23:44.965Z,60.74
2019-04-03T00:24:44.801Z,60.76
2019-04-03T00:25:44.804Z,60.76
2019-04-03T00:26:44.795Z,60.46
2019-04-03T00:27:44.775Z,60.35
2019-04-03T00:28:44.761Z,60.56
2019-04-03T00:29:44.745Z,60.76
2019-04-03T00:30:44.750Z,60.66
2019-04-03T00:31:44.725Z,60.56
2019-04-03T00:32:44.719Z,60.66
2019-04-03T00:33:44.703Z,61.07
2019-04-03T00:34:44.700Z,60.56
2019-04-03T00:35:44.693Z,60.86
2019-04-03T00:36:44.667Z,61.07
2019-04-03T00:37:44.653Z,61.18
2019-04-03T00:38:44.643Z,61.48
2019-04-03T00:39:44.651Z,61.27
2019-04-03T00:40:44.633Z,61.48
2019-04-03T00:41:44.620Z,61.48
2019-04-03T00:42:44.619Z,61.89
2019-04-03T00:43:44.587Z,61.71
2019-04-03T00:44:44.577Z,61.51
2019-04-03T00:45:44.568Z,61.51
2019-04-03T00:46:44.566Z,62.05
2019-04-03T00:47:44.546Z,62.26
2019-04-03T00:48:44.538Z,63.07
2019-04-03T00:49:44.555Z,62.98
2019-04-03T00:50:44.520Z,62.98
2019-04-03T00:51:44.498Z,62.66
2019-04-03T00:52:44.500Z,62.90
2019-04-03T00:53:44.496Z,63.21
2019-04-03T00:54:44.471Z,63.31
2019-04-03T00:55:44.484Z,63.31
2019-04-03T00:56:44.493Z,63.51
2019-04-03T00:57:44.436Z,63.96
2019-04-03T00:58:44.428Z,64.06
2019-04-03T00:59:44.409Z,63.75
2019-04-03T01:00:44.399Z,64.57
2019-04-03T01:01:44.406Z,64.57
2019-04-03T01:02:44.391Z,65.09
2019-04-03T01:03:44.364Z,65.32
2019-04-03T01:04:44.365Z,65.50
2019-04-03T01:05:44.359Z,65.42
2019-04-03T01:06:44.356Z,65.22
2019-04-03T01:07:44.329Z,65.53
2019-04-03T01:08:44.317Z,65.73
2019-04-03T01:09:44.305Z,65.73
2019-04-03T01:10:44.294Z,65.60
2019-04-03T01:11:44.374Z,65.53
2019-04-03T01:12:44.271Z,65.50
2019-04-03T01:13:44.266Z,65.29
2019-04-03T01:14:44.262Z,65.50
2019-04-03T01:15:44.261Z,65.09
2019-04-03T01:16:44.228Z,65.09
2019-04-03T01:17:44.420Z,65.29
2019-04-03T01:18:44.205Z,65.19
2019-04-03T01:19:44.201Z,65.19
2019-04-03T01:20:44.330Z,65.29
2019-04-03T01:21:44.174Z,64.78
2019-04-03T01:22:44.157Z,64.98
2019-04-03T01:23:44.187Z,64.95
2019-04-03T01:24:44.138Z,64.98
2019-04-03T01:25:44.126Z,64.78
2019-04-03T01:26:44.114Z,64.98
2019-04-03T01:27:44.114Z,64.98
2019-04-03T01:28:44.089Z,65.19
2019-04-03T01:29:44.110Z,65.63
2019-04-03T01:30:44.707Z,65.63
2019-04-03T01:31:44.715Z,65.63
2019-04-03T01:32:46.139Z,65.73
2019-04-03T01:33:46.093Z,65.32
2019-04-03T01:34:44.020Z,65.50
2019-04-03T01:35:44.078Z,65.12
2019-04-03T01:36:44.006Z,65.60
2019-04-03T01:37:43.989Z,65.19
2019-04-03T01:38:43.995Z,65.80
2019-04-03T01:39:43.971Z,65.32
2019-04-03T01:40:44.069Z,65.29
2019-04-03T01:41:43.949Z,65.29
2019-04-03T01:42:44.030Z,65.39
2019-04-03T01:43:43.927Z,65.19
2019-04-03T01:44:44.071Z,65.39
2019-04-03T01:45:43.901Z,65.50
2019-04-03T01:46:43.905Z,65.83
2019-04-03T01:47:43.881Z,65.80
2019-04-03T01:48:43.876Z,65.80
2019-04-03T01:49:44.008Z,65.50
2019-04-03T01:50:43.845Z,65.80
2019-04-03T01:51:43.929Z,65.91
2019-04-03T01:52:43.828Z,66.42
2019-04-03T01:53:43.812Z,66.93
2019-04-03T01:54:43.806Z,66.52
2019-04-03T01:55:43.929Z,65.70
2019-04-03T01:56:43.779Z,65.19
2019-04-03T01:57:43.880Z,65.29
2019-04-03T01:58:43.764Z,65.50
2019-04-03T01:59:43.749Z,65.60
2019-04-03T02:00:43.734Z,65.91
2019-04-03T02:01:43.892Z,65.73
2019-04-03T02:02:43.711Z,65.91
2019-04-03T02:03:43.707Z,66.35
2019-04-03T02:04:43.696Z,66.25
2019-04-03T02:05:44.127Z,66.14
2019-04-03T02:06:44.341Z,66.35
2019-04-03T02:07:44.747Z,66.14
2019-04-03T02:08:44.931Z,66.45
2019-04-03T02:09:46.146Z,66.45
2019-04-03T02:10:43.631Z,66.79
2019-04-03T02:11:43.630Z,66.89
2019-04-03T02:12:43.601Z,66.89
2019-04-03T02:13:43.654Z,67.20
2019-04-03T02:14:43.577Z,67.20
2019-04-03T02:15:43.568Z,67.03
2019-04-03T02:16:43.703Z,67.85
2019-04-03T02:17:43.556Z,67.30
2019-04-03T02:18:43.535Z,67.30
2019-04-03T02:19:43.652Z,67.20
2019-04-03T02:20:43.516Z,67.61
2019-04-03T02:21:43.502Z,67.30
2019-04-03T02:22:43.527Z,67.51
2019-04-03T02:23:43.543Z,67.10
2019-04-03T02:24:43.461Z,67.51
2019-04-03T02:25:43.488Z,68.13
2019-04-03T02:26:43.452Z,67.65
2019-04-03T02:27:43.507Z,68.33
2019-04-03T02:28:43.434Z,68.98
2019-04-03T02:29:43.495Z,67.92
2019-04-03T02:30:46.135Z,67.75
2019-04-03T02:31:43.408Z,68.46
2019-04-03T02:32:43.681Z,68.23
2019-04-03T02:33:43.422Z,68.26
2019-04-03T02:34:43.352Z,67.75
2019-04-03T02:35:43.348Z,68.46
2019-04-03T02:36:44.911Z,68.26
2019-04-03T02:37:43.319Z,68.16
2019-04-03T02:38:43.326Z,68.16
2019-04-03T02:39:43.396Z,68.16
2019-04-03T02:40:43.297Z,68.46
2019-04-03T02:41:43.279Z,68.77
2019-04-03T02:42:43.333Z,68.77
2019-04-03T02:43:46.339Z,68.57
2019-04-03T02:44:43.655Z,68.67
2019-04-03T02:45:43.243Z,68.46
2019-04-03T02:46:43.223Z,67.85
2019-04-03T02:47:43.275Z,68.67
2019-04-03T02:48:43.345Z,68.98
2019-04-03T02:49:43.885Z,68.46
2019-04-03T02:50:46.659Z,68.46
2019-04-03T02:51:43.167Z,68.46
2019-04-03T02:52:43.158Z,68.37
2019-04-03T02:53:43.199Z,68.57
2019-04-03T02:54:43.151Z,69.42
2019-04-03T02:55:43.124Z,69.12
2019-04-03T02:56:45.476Z,69.32
2019-04-03T02:57:43.184Z,69.22
2019-04-03T02:58:43.089Z,69.53
2019-04-03T02:59:43.083Z,69.87
2019-04-03T03:00:43.476Z,69.56
2019-04-03T03:01:43.060Z,69.87
2019-04-03T03:02:45.354Z,70.48
2019-04-03T03:03:43.659Z,70.59
2019-04-03T03:04:43.028Z,70.28
2019-04-03T03:05:43.063Z,70.48
2019-04-03T03:06:43.011Z,70.38
2019-04-03T03:07:43.106Z,70.38
2019-04-03T03:08:43.122Z,70.42
2019-04-03T03:09:45.948Z,70.10
2019-04-03T03:10:42.968Z,71.03
2019-04-03T03:11:42.961Z,71.03
2019-04-03T03:12:43.009Z,70.72
2019-04-03T03:13:43.239Z,70.52
2019-04-03T03:14:42.912Z,70.21
2019-04-03T03:15:44.328Z,69.90
2019-04-03T03:16:42.933Z,70.31
2019-04-03T03:17:42.882Z,70.52
2019-04-03T03:18:42.863Z,70.93
2019-04-03T03:19:42.854Z,71.44
2019-04-03T03:20:42.896Z,71.44
2019-04-03T03:21:44.744Z,70.93
2019-04-03T03:22:43.062Z,71.55
2019-04-03T03:23:42.810Z,71.55
2019-04-03T03:24:42.812Z,71.03
2019-04-03T03:25:42.795Z,71.03
2019-04-03T03:26:42.799Z,71.55
2019-04-03T03:27:43.272Z,71.03
2019-04-03T03:28:45.680Z,70.93
2019-04-03T03:29:42.752Z,71.14
2019-04-03T03:30:54.044Z,71.14
2019-04-03T03:32:06.381Z,71.24
2019-04-03T03:32:44.043Z,71.65
2019-04-03T03:33:43.501Z,72.58
2019-04-03T03:34:53.837Z,72.06
2019-04-03T03:35:47.146Z,71.75
2019-04-03T03:36:44.008Z,71.03
2019-04-03T03:37:42.923Z,71.03
2019-04-03T03:38:42.883Z,71.44
2019-04-03T03:39:44.078Z,71.55
2019-04-03T03:40:42.629Z,71.55
2019-04-03T03:41:42.709Z,71.65
2019-04-03T03:42:42.638Z,72.78
2019-04-03T03:43:42.971Z,71.24
2019-04-03T03:44:45.523Z,71.34
2019-04-03T03:45:42.579Z,71.24
2019-04-03T03:46:42.771Z,71.55
2019-04-03T03:47:42.564Z,71.86
2019-04-03T03:48:44.204Z,71.96
2019-04-03T03:49:42.535Z,72.06
2019-04-03T03:50:42.514Z,72.06
2019-04-03T03:51:42.722Z,72.20
2019-04-03T03:52:42.893Z,72.61
2019-04-03T03:53:44.807Z,72.61
2019-04-03T03:54:42.813Z,72.81
2019-04-03T03:55:42.460Z,72.30
2019-04-03T03:56:42.577Z,72.09
2019-04-03T03:57:42.447Z,72.92
2019-04-03T03:58:44.590Z,72.71
2019-04-03T03:59:42.716Z,72.58
2019-04-03T04:00:42.425Z,72.06
2019-04-03T04:01:42.386Z,71.96
2019-04-03T04:02:44.548Z,71.86
2019-04-03T04:03:42.510Z,71.99
2019-04-03T04:04:46.675Z,73.02
2019-04-03T04:05:43.466Z,72.61
2019-04-03T04:06:42.754Z,73.02
2019-04-03T04:07:42.324Z,72.81
2019-04-03T04:08:44.293Z,72.75
2019-04-03T04:09:42.353Z,72.92
2019-04-03T04:10:42.321Z,73.26
2019-04-03T04:11:42.282Z,73.26
2019-04-03T04:12:42.624Z,73.26
2019-04-03T04:13:42.820Z,73.57
2019-04-03T04:14:42.285Z,73.57
2019-04-03T04:15:42.514Z,73.78
2019-04-03T04:16:42.245Z,73.36
2019-04-03T04:17:42.542Z,74.22
2019-04-03T04:18:42.213Z,74.02
2019-04-03T04:19:42.189Z,74.63
2019-04-03T04:20:42.247Z,75.18
2019-04-03T04:21:43.919Z,74.98
2019-04-03T04:22:42.160Z,75.39
2019-04-03T04:23:42.144Z,75.29
2019-04-03T04:24:42.131Z,75.60
2019-04-03T04:25:44.190Z,75.56
2019-04-03T04:26:42.126Z,75.39
2019-04-03T04:27:42.104Z,75.56
2019-04-03T04:28:42.097Z,75.46
2019-04-03T04:29:42.270Z,75.56
2019-04-03T04:30:42.509Z,75.46
2019-04-03T04:31:44.292Z,75.60
2019-04-03T04:32:42.363Z,75.91
2019-04-03T04:33:42.041Z,75.67
2019-04-03T04:34:42.030Z,75.36
2019-04-03T04:35:42.014Z,75.15
2019-04-03T04:36:42.020Z,75.26
2019-04-03T04:37:42.067Z,74.91
2019-04-03T04:38:41.992Z,75.01
2019-04-03T04:39:42.145Z,74.91
2019-04-03T04:40:41.959Z,75.22
2019-04-03T04:41:41.959Z,75.01
2019-04-03T04:42:42.090Z,75.22
2019-04-03T04:43:42.081Z,74.71
2019-04-03T04:44:41.909Z,74.50
2019-04-03T04:45:42.706Z,75.22
2019-04-03T04:46:43.600Z,75.01
2019-04-03T04:47:41.876Z,75.12
2019-04-03T04:48:42.002Z,74.80
2019-04-03T04:49:41.909Z,74.60
2019-04-03T04:50:41.842Z,74.40
2019-04-03T04:51:41.844Z,74.80
2019-04-03T04:52:41.836Z,74.19
2019-04-03T04:53:41.815Z,74.60
2019-04-03T04:54:43.013Z,74.29
2019-04-03T04:55:41.797Z,74.36
2019-04-03T04:56:41.782Z,74.19
2019-04-03T04:57:41.778Z,74.05
2019-04-03T04:58:42.933Z,74.05
2019-04-03T04:59:42.990Z,73.54
2019-04-03T05:00:41.749Z,73.13
2019-04-03T05:01:41.956Z,73.33
2019-04-03T05:02:41.726Z,73.43
2019-04-03T05:03:41.771Z,73.54
2019-04-03T05:04:41.692Z,73.13
2019-04-03T05:05:41.678Z,73.64
2019-04-03T05:06:41.806Z,73.64
2019-04-03T05:07:41.687Z,73.43
2019-04-03T05:08:41.645Z,72.92
2019-04-03T05:09:41.639Z,73.23
2019-04-03T05:10:41.795Z,72.68
2019-04-03T05:11:41.621Z,73.02
2019-04-03T05:12:44.755Z,72.78
2019-04-03T05:13:41.600Z,72.78
2019-04-03T05:14:41.583Z,72.13
2019-04-03T05:15:41.743Z,73.26
2019-04-03T05:16:41.559Z,72.78
2019-04-03T05:17:41.668Z,72.16
2019-04-03T05:18:41.573Z,71.82
2019-04-03T05:19:41.724Z,71.55
2019-04-03T05:20:41.517Z,72.88
2019-04-03T05:21:41.503Z,72.06
2019-04-03T05:22:41.499Z,72.68
2019-04-03T05:23:41.585Z,71.86
2019-04-03T05:24:41.485Z,71.86
2019-04-03T05:25:41.463Z,71.75
2019-04-03T05:26:41.623Z,71.55
2019-04-03T05:27:41.438Z,71.86
2019-04-03T05:28:53.297Z,71.44
2019-04-03T05:29:42.425Z,71.55
2019-04-03T05:30:41.406Z,71.55
2019-04-03T05:31:41.624Z,71.86
2019-04-03T05:32:41.635Z,71.75
2019-04-03T05:33:42.322Z,71.65
2019-04-03T05:34:43.515Z,71.86
2019-04-03T05:35:41.350Z,71.75
2019-04-03T05:36:41.626Z,71.86
2019-04-03T05:37:41.349Z,71.75
2019-04-03T05:38:41.316Z,71.75
2019-04-03T05:39:41.303Z,71.75
2019-04-03T05:40:41.304Z,71.55
2019-04-03T05:41:41.286Z,71.75
2019-04-03T05:42:41.273Z,71.34
2019-04-03T05:43:41.415Z,71.31
2019-04-03T05:44:41.252Z,71.10
2019-04-03T05:45:42.256Z,71.20
2019-04-03T05:46:41.230Z,71.51
2019-04-03T05:47:41.397Z,71.10
2019-04-03T05:48:41.466Z,70.04
2019-04-03T05:49:41.196Z,70.14
2019-04-03T05:50:41.204Z,70.59
2019-04-03T05:51:41.334Z,69.97
2019-04-03T05:52:41.163Z,69.84
2019-04-03T05:53:41.146Z,70.04
2019-04-03T05:54:43.930Z,69.84
2019-04-03T05:55:41.766Z,69.84
2019-04-03T05:56:42.945Z,69.49
2019-04-03T05:57:41.110Z,69.80
2019-04-03T05:58:54.042Z,68.88
2019-04-03T05:59:43.560Z,69.29
2019-04-03T06:00:41.099Z,69.09
2019-04-03T06:01:42.622Z,69.49
2019-04-03T06:02:41.049Z,68.67
2019-04-03T06:03:44.867Z,68.95
2019-04-03T06:04:41.722Z,68.33
2019-04-03T06:05:41.853Z,68.43
2019-04-03T06:06:41.027Z,67.92
2019-04-03T06:07:41.004Z,67.82
2019-04-03T06:08:40.982Z,67.17
2019-04-03T06:09:40.977Z,67.68
2019-04-03T06:10:40.962Z,66.96
2019-04-03T06:11:41.224Z,66.96
2019-04-03T06:12:40.958Z,67.17
2019-04-03T06:13:40.930Z,66.35
2019-04-03T06:14:40.917Z,66.42
2019-04-03T06:15:40.901Z,66.83
2019-04-03T06:16:40.900Z,66.52
2019-04-03T06:17:41.146Z,65.98
2019-04-03T06:18:40.895Z,65.67
2019-04-03T06:19:40.927Z,64.82
2019-04-03T06:20:42.593Z,64.41
2019-04-03T06:21:40.834Z,64.17
2019-04-03T06:22:40.979Z,63.12
2019-04-03T06:23:40.830Z,62.61
2019-04-03T06:24:40.813Z,63.25
2019-04-03T06:25:40.792Z,62.71
2019-04-03T06:26:41.641Z,62.58
2019-04-03T06:27:42.965Z,61.63
2019-04-03T06:28:42.536Z,61.19
2019-04-03T06:29:40.753Z,60.50
2019-04-03T06:30:40.734Z,61.43
2019-04-03T06:31:40.994Z,61.55
2019-04-03T06:32:40.718Z,61.79
2019-04-03T06:33:40.738Z,61.96
2019-04-03T06:34:43.351Z,61.99
2019-04-03T06:35:40.692Z,63.43
2019-04-03T06:36:40.681Z,63.12
2019-04-03T06:37:40.663Z,63.15
2019-04-03T06:38:40.910Z,62.74
2019-04-03T06:39:40.646Z,63.05
2019-04-03T06:40:40.658Z,63.22
2019-04-03T06:41:42.027Z,61.96
2019-04-03T06:42:40.600Z,61.32
2019-04-03T06:43:40.599Z,60.06
2019-04-03T06:44:40.595Z,59.76
2019-04-03T06:45:43.023Z,59.73
2019-04-03T06:46:40.567Z,59.50
2019-04-03T06:47:40.587Z,57.93
2019-04-03T06:48:40.536Z,58.65
2019-04-03T06:49:41.089Z,58.14
2019-04-03T06:50:40.513Z,58.04
2019-04-03T06:51:40.512Z,57.63
2019-04-03T06:52:40.498Z,58.42
2019-04-03T06:53:40.480Z,58.09
2019-04-03T06:54:40.471Z,56.99
2019-04-03T06:55:40.468Z,58.22
2019-04-03T06:56:41.257Z,57.40
2019-04-03T06:57:40.436Z,57.48
2019-04-03T06:58:43.611Z,57.17
2019-04-03T06:59:40.415Z,57.50
2019-04-03T07:00:40.409Z,57.78
2019-04-03T07:01:40.672Z,56.84
2019-04-03T07:02:40.386Z,57.07
2019-04-03T07:03:40.369Z,57.98
2019-04-03T07:04:40.362Z,57.27
2019-04-03T07:05:41.687Z,57.27
2019-04-03T07:06:42.805Z,56.94
2019-04-03T07:07:40.552Z,56.68
2019-04-03T07:08:41.145Z,55.71
2019-04-03T07:09:40.302Z,54.59
2019-04-03T07:10:40.480Z,54.39
2019-04-03T07:11:40.284Z,54.66
2019-04-03T07:12:40.378Z,53.85
2019-04-03T07:13:40.410Z,53.78
2019-04-03T07:14:40.248Z,54.21
2019-04-03T07:15:40.233Z,55.66
2019-04-03T07:16:40.236Z,55.66
2019-04-03T07:17:40.222Z,55.63
2019-04-03T07:18:40.201Z,54.90
2019-04-03T07:19:40.277Z,54.59
2019-04-03T07:20:40.182Z,54.64
2019-04-03T07:21:40.167Z,55.56
2019-04-03T07:22:40.164Z,55.76
2019-04-03T07:23:40.162Z,55.33
2019-04-03T07:24:40.131Z,54.97
2019-04-03T07:25:40.129Z,53.93
2019-04-03T07:26:40.111Z,53.55
2019-04-03T07:27:42.226Z,54.36
2019-04-03T07:28:41.501Z,54.31
2019-04-03T07:29:40.115Z,53.37
2019-04-03T07:30:40.065Z,52.15
2019-04-03T07:31:40.059Z,52.68
2019-04-03T07:32:40.108Z,52.94
2019-04-03T07:33:40.033Z,54.39
2019-04-03T07:34:40.027Z,55.30
2019-04-03T07:35:40.654Z,55.41
2019-04-03T07:36:41.404Z,54.46
2019-04-03T07:37:40.036Z,54.13
2019-04-03T07:38:40.006Z,53.93
2019-04-03T07:39:39.959Z,53.98
2019-04-03T07:40:39.949Z,53.17
2019-04-03T07:41:41.559Z,52.53
2019-04-03T07:42:40.000Z,52.08
2019-04-03T07:43:40.045Z,50.35
2019-04-03T07:44:39.916Z,50.48
2019-04-03T07:45:39.913Z,50.88
2019-04-03T07:46:39.927Z,51.64
2019-04-03T07:47:39.878Z,51.51
2019-04-03T07:48:39.914Z,51.23
2019-04-03T07:49:40.263Z,52.25
2019-04-03T07:50:41.967Z,52.12
2019-04-03T07:51:39.827Z,50.70
2019-04-03T07:52:39.820Z,50.70
2019-04-03T07:53:39.805Z,52.96
2019-04-03T07:54:40.448Z,52.53
2019-04-03T07:55:39.783Z,51.72
2019-04-03T07:56:39.771Z,51.62
2019-04-03T07:57:41.397Z,51.79
2019-04-03T07:58:39.751Z,50.53
2019-04-03T07:59:39.770Z,50.35
2019-04-03T08:00:39.830Z,50.68
2019-04-03T08:01:41.653Z,50.48
2019-04-03T08:02:39.722Z,50.58
2019-04-03T08:03:39.699Z,50.37
2019-04-03T08:04:39.975Z,50.96
2019-04-03T08:05:39.683Z,51.06
2019-04-03T08:06:39.669Z,49.82
2019-04-03T08:07:39.657Z,48.27
2019-04-03T08:08:39.646Z,49.31
2019-04-03T08:09:39.833Z,49.95
2019-04-03T08:10:39.662Z,49.97
2019-04-03T08:11:39.615Z,50.40
2019-04-03T08:12:39.623Z,50.58
2019-04-03T08:13:39.582Z,49.74
2019-04-03T08:14:41.206Z,50.23
2019-04-03T08:15:40.152Z,49.21
2019-04-03T08:16:42.062Z,48.88
2019-04-03T08:17:39.542Z,48.66
2019-04-03T08:18:39.537Z,48.38
2019-04-03T08:19:39.521Z,48.35
2019-04-03T08:20:39.515Z,48.23
2019-04-03T08:21:39.807Z,47.70
2019-04-03T08:22:39.526Z,47.90
2019-04-03T08:23:39.470Z,47.60
2019-04-03T08:24:40.134Z,47.39
2019-04-03T08:25:42.183Z,48.00
2019-04-03T08:26:39.450Z,48.66
2019-04-03T08:27:39.436Z,49.06
2019-04-03T08:28:39.415Z,48.40
2019-04-03T08:29:39.446Z,49.31
2019-04-03T08:30:40.603Z,49.59
2019-04-03T08:31:42.497Z,49.59
2019-04-03T08:32:39.374Z,47.87
2019-04-03T08:33:39.358Z,49.69
2019-04-03T08:34:39.359Z,49.59
2019-04-03T08:35:39.422Z,48.15
2019-04-03T08:36:39.939Z,48.38
2019-04-03T08:37:41.676Z,48.38
2019-04-03T08:38:39.653Z,48.55
2019-04-03T08:39:39.297Z,48.35
2019-04-03T08:40:39.292Z,49.16
2019-04-03T08:41:39.270Z,48.94
2019-04-03T08:42:39.564Z,47.82
2019-04-03T08:43:39.250Z,48.13
2019-04-03T08:44:39.241Z,48.00
2019-04-03T08:45:39.647Z,47.88
2019-04-03T08:46:43.039Z,46.77
2019-04-03T08:47:39.207Z,48.00
2019-04-03T08:48:39.480Z,47.86
2019-04-03T08:49:39.189Z,46.83
2019-04-03T08:50:39.172Z,46.32
2019-04-03T08:51:39.161Z,46.77
2019-04-03T08:52:39.152Z,47.27
2019-04-03T08:53:39.737Z,47.47
2019-04-03T08:54:41.354Z,47.17
2019-04-03T08:55:39.181Z,47.88
2019-04-03T08:56:39.109Z,47.39
2019-04-03T08:57:39.098Z,48.23
2019-04-03T08:58:39.180Z,48.63
2019-04-03T08:59:39.135Z,48.43
2019-04-03T09:00:39.061Z,47.19
2019-04-03T09:01:39.409Z,47.70
2019-04-03T09:02:39.043Z,47.78
2019-04-03T09:03:39.041Z,46.04
2019-04-03T09:04:39.079Z,46.44
2019-04-03T09:05:39.016Z,45.81
2019-04-03T09:06:39.000Z,44.90
2019-04-03T09:07:39.331Z,44.92
2019-04-03T09:08:39.025Z,46.79
2019-04-03T09:09:38.960Z,46.38
2019-04-03T09:10:38.948Z,46.89
2019-04-03T09:11:38.963Z,46.36
2019-04-03T09:12:39.000Z,46.95
2019-04-03T09:13:38.921Z,45.08
2019-04-03T09:14:38.918Z,44.56
2019-04-03T09:15:38.897Z,44.13
2019-04-03T09:16:38.980Z,43.95
2019-04-03T09:17:39.101Z,44.76
2019-04-03T09:18:38.862Z,43.95
2019-04-03T09:19:41.053Z,44.80
2019-04-03T09:20:39.003Z,44.48
2019-04-03T09:21:38.924Z,45.43
2019-04-03T09:22:38.820Z,45.00
2019-04-03T09:23:38.910Z,44.78
2019-04-03T09:24:38.839Z,43.67
2019-04-03T09:25:39.068Z,44.37
2019-04-03T09:26:38.835Z,44.62
2019-04-03T09:27:40.606Z,44.09
2019-04-03T09:28:41.266Z,44.09
2019-04-03T09:29:38.743Z,44.49
2019-04-03T09:30:39.044Z,44.58
2019-04-03T09:31:38.722Z,43.85
2019-04-03T09:32:38.718Z,43.06
2019-04-03T09:33:38.703Z,44.15
2019-04-03T09:34:38.694Z,43.85
2019-04-03T09:35:38.763Z,43.23
2019-04-03T09:36:38.663Z,43.51
2019-04-03T09:37:38.835Z,42.47
2019-04-03T09:38:40.715Z,42.35
2019-04-03T09:39:38.639Z,40.34
2019-04-03T09:40:38.619Z,41.97
2019-04-03T09:41:38.612Z,41.36
2019-04-03T09:42:38.607Z,42.27
2019-04-03T09:43:39.661Z,41.65
2019-04-03T09:44:38.580Z,41.42
2019-04-03T09:45:38.829Z,40.22
2019-04-03T09:46:38.833Z,41.25
2019-04-03T09:47:38.568Z,40.44
2019-04-03T09:48:39.169Z,41.14
2019-04-03T09:49:42.694Z,41.33
2019-04-03T09:50:39.512Z,41.31
2019-04-03T09:51:38.534Z,40.69
2019-04-03T09:52:46.141Z,40.16
2019-04-03T09:53:39.482Z,40.04
2019-04-03T09:54:38.470Z,39.03
2019-04-03T09:55:38.767Z,39.36
2019-04-03T09:56:54.902Z,39.25
2019-04-03T09:57:39.737Z,40.30
2019-04-03T09:58:38.542Z,39.98
2019-04-03T09:59:38.598Z,39.09
2019-04-03T10:00:41.342Z,40.00
2019-04-03T10:01:38.653Z,40.80
2019-04-03T10:02:38.422Z,40.10
2019-04-03T10:03:38.372Z,39.78
2019-04-03T10:04:38.432Z,39.37
2019-04-03T10:05:38.567Z,40.48
2019-04-03T10:06:38.383Z,39.78
2019-04-03T10:07:38.378Z,38.87
2019-04-03T10:08:40.414Z,39.59
2019-04-03T10:09:39.123Z,41.09
2019-04-03T10:10:38.302Z,39.28
2019-04-03T10:11:39.385Z,40.08
2019-04-03T10:12:38.367Z,39.78
2019-04-03T10:13:38.386Z,39.98
2019-04-03T10:14:38.272Z,39.09
2019-04-03T10:15:38.308Z,39.90
2019-04-03T10:16:38.509Z,39.07
2019-04-03T10:17:39.114Z,39.05
2019-04-03T10:18:39.085Z,39.25
2019-04-03T10:19:38.215Z,39.14
2019-04-03T10:20:38.185Z,38.85
2019-04-03T10:21:38.517Z,39.25
2019-04-03T10:22:38.473Z,39.25
2019-04-03T10:23:38.167Z,38.45
2019-04-03T10:24:38.154Z,38.23
2019-04-03T10:25:38.441Z,38.23
2019-04-03T10:26:40.553Z,37.63
2019-04-03T10:27:38.110Z,37.52
2019-04-03T10:28:38.100Z,37.32
2019-04-03T10:29:38.099Z,38.33
2019-04-03T10:30:38.330Z,37.81
2019-04-03T10:31:38.322Z,37.71
2019-04-03T10:32:38.052Z,37.30
2019-04-03T10:33:38.043Z,37.59
2019-04-03T10:34:38.043Z,36.72
2019-04-03T10:35:39.347Z,37.23
2019-04-03T10:36:38.015Z,37.93
2019-04-03T10:37:38.043Z,37.12
2019-04-03T10:38:37.988Z,36.82
2019-04-03T10:39:41.940Z,37.32
2019-04-03T10:40:38.974Z,37.32
2019-04-03T10:41:37.955Z,37.32
2019-04-03T10:42:38.101Z,38.11
2019-04-03T10:43:37.960Z,38.11
2019-04-03T10:44:37.927Z,36.79
2019-04-03T10:45:38.159Z,36.79
2019-04-03T10:46:37.928Z,37.08
2019-04-03T10:47:43.113Z,36.79
2019-04-03T10:48:39.065Z,36.80
2019-04-03T10:49:38.032Z,37.01
2019-04-03T10:50:38.644Z,37.29
2019-04-03T10:51:40.577Z,37.49
2019-04-03T10:52:38.133Z,37.21
2019-04-03T10:53:37.859Z,37.19
2019-04-03T10:54:38.570Z,37.08
2019-04-03T10:55:37.945Z,37.07
2019-04-03T10:56:37.800Z,36.87
2019-04-03T10:57:37.785Z,37.17
2019-04-03T10:58:38.390Z,37.37
2019-04-03T10:59:38.076Z,37.26
2019-04-03T11:00:38.210Z,37.22
2019-04-03T11:01:37.810Z,37.20
2019-04-03T11:02:37.737Z,35.68
2019-04-03T11:03:37.719Z,34.48
2019-04-03T11:04:37.709Z,35.82
2019-04-03T11:05:37.696Z,36.03
2019-04-03T11:06:37.910Z,35.75
2019-04-03T11:07:37.902Z,36.55
2019-04-03T11:08:37.659Z,36.23
2019-04-03T11:09:37.943Z,36.00
2019-04-03T11:10:37.644Z,35.69
2019-04-03T11:11:37.756Z,35.80
2019-04-03T11:12:38.041Z,35.80
2019-04-03T11:13:37.610Z,35.73
2019-04-03T11:14:39.232Z,36.03
2019-04-03T11:15:37.591Z,36.11
2019-04-03T11:16:39.396Z,36.21
2019-04-03T11:17:37.573Z,37.05
2019-04-03T11:18:37.567Z,36.95
2019-04-03T11:19:38.217Z,36.95
2019-04-03T11:20:38.880Z,36.35
2019-04-03T11:21:37.699Z,35.75
2019-04-03T11:22:42.714Z,36.65
2019-04-03T11:23:44.025Z,36.41
2019-04-03T11:24:41.895Z,36.00
2019-04-03T11:25:40.924Z,35.60
2019-04-03T11:26:37.504Z,35.88
2019-04-03T11:27:43.348Z,35.91
2019-04-03T11:28:39.022Z,35.73
2019-04-03T11:29:37.582Z,36.15
2019-04-03T11:30:37.660Z,36.93
2019-04-03T11:31:41.474Z,35.82
2019-04-03T11:32:40.706Z,36.60
2019-04-03T11:33:37.773Z,36.02
2019-04-03T11:34:37.390Z,36.11
2019-04-03T11:35:37.385Z,35.82
2019-04-03T11:36:37.436Z,36.63
2019-04-03T11:37:37.341Z,36.23
2019-04-03T11:38:37.338Z,36.25
2019-04-03T11:39:37.911Z,35.83
2019-04-03T11:40:37.309Z,36.05
2019-04-03T11:41:37.312Z,35.61
2019-04-03T11:42:37.292Z,35.60
2019-04-03T11:43:37.293Z,35.30
2019-04-03T11:44:37.301Z,35.71
2019-04-03T11:45:37.262Z,36.02
2019-04-03T11:46:37.632Z,36.02
2019-04-03T11:47:37.252Z,35.82
2019-04-03T11:48:37.255Z,34.59
2019-04-03T11:49:37.212Z,34.67
2019-04-03T11:50:39.408Z,34.88
2019-04-03T11:51:37.376Z,35.35
2019-04-03T11:52:37.180Z,34.14
2019-04-03T11:53:37.168Z,34.83
2019-04-03T11:54:39.502Z,33.73
2019-04-03T11:55:37.147Z,33.86
2019-04-03T11:56:37.157Z,34.19
2019-04-03T11:57:37.437Z,33.69
2019-04-03T11:58:37.123Z,34.58
2019-04-03T11:59:37.104Z,34.06
2019-04-03T12:00:37.099Z,34.33
2019-04-03T12:01:37.413Z,34.53
2019-04-03T12:02:39.096Z,34.30
2019-04-03T12:03:37.062Z,34.19
2019-04-03T12:04:37.048Z,32.91
2019-04-03T12:05:37.235Z,34.31
2019-04-03T12:06:37.039Z,32.89
2019-04-03T12:07:37.339Z,33.91
2019-04-03T12:08:37.046Z,33.11
2019-04-03T12:09:37.069Z,33.11
2019-04-03T12:10:37.493Z,33.91
2019-04-03T12:11:38.391Z,33.12
2019-04-03T12:12:37.096Z,34.05
2019-04-03T12:13:36.951Z,33.74
2019-04-03T12:14:37.050Z,34.06
2019-04-03T12:15:36.966Z,34.36
2019-04-03T12:16:37.073Z,34.86
2019-04-03T12:17:36.956Z,34.67
2019-04-03T12:18:37.269Z,34.38
2019-04-03T12:19:37.835Z,34.38
2019-04-03T12:20:41.224Z,34.17
2019-04-03T12:21:38.073Z,34.46
2019-04-03T12:22:36.849Z,33.23
2019-04-03T12:23:39.187Z,33.61
2019-04-03T12:24:36.835Z,33.41
2019-04-03T12:25:39.536Z,32.84
2019-04-03T12:26:36.812Z,35.18
2019-04-03T12:27:36.868Z,35.60
2019-04-03T12:28:36.794Z,35.73
2019-04-03T12:29:36.775Z,35.93
2019-04-03T12:30:36.872Z,35.73
2019-04-03T12:31:36.841Z,35.83
2019-04-03T12:32:42.652Z,36.03
2019-04-03T12:33:37.746Z,35.43
2019-04-03T12:34:37.725Z,35.53
2019-04-03T12:35:36.713Z,35.64
2019-04-03T12:36:37.167Z,35.64
2019-04-03T12:37:37.034Z,35.86
2019-04-03T12:38:36.750Z,36.15
2019-04-03T12:39:36.677Z,36.03
2019-04-03T12:40:36.884Z,35.63
2019-04-03T12:41:37.923Z,36.03
2019-04-03T12:42:36.738Z,36.11
2019-04-03T12:43:36.619Z,35.41
2019-04-03T12:44:36.673Z,35.11
2019-04-03T12:45:36.820Z,36.02
2019-04-03T12:46:37.314Z,36.08
2019-04-03T12:47:36.602Z,35.56
2019-04-03T12:48:36.576Z,35.58
2019-04-03T12:49:36.844Z,35.06
2019-04-03T12:50:36.930Z,35.38
2019-04-03T12:51:36.538Z,35.88
2019-04-03T12:52:36.679Z,35.46